Time;durP1;ratioP1;P1;durP2;ratioP2;P2;SDS_P1;SDS_P2;PMS_P1;PMS_P2;Temp;Humidity;BMP_temperature;BMP_pressure;BME280_temperature;BME280_humidity;BME280_pressure;Samples;Min_cycle;Max_cycle;Signal;HPM_P1;HPM_P2
2022/04/30 00:01:29;;;;;;;12.63;7.35;;;12.90;63.30;;;;;;5078202;28;20024;-59
2022/04/30 00:03:54;;;;;;;12.80;7.80;;;12.90;64.30;;;;;;5078564;28;20029;-59
2022/04/30 00:06:20;;;;;;;12.77;8.23;;;12.90;63.30;;;;;;5078466;28;20051;-59
2022/04/30 00:08:46;;;;;;;13.05;7.65;;;12.90;63.20;;;;;;5078106;28;20024;-60
2022/04/30 00:11:13;;;;;;;16.02;8.40;;;12.80;63.00;;;;;;5078223;28;20023;-60
2022/04/30 00:13:38;;;;;;;16.58;8.68;;;12.80;63.50;;;;;;5078033;28;20028;-60
2022/04/30 00:16:04;;;;;;;13.40;7.45;;;12.80;62.50;;;;;;5077611;28;20025;-59
2022/04/30 00:18:30;;;;;;;13.63;7.90;;;12.80;63.90;;;;;;5077752;28;20021;-59
2022/04/30 00:20:58;;;;;;;11.32;7.78;;;12.70;62.80;;;;;;5077910;28;20016;-59
2022/04/30 00:23:24;;;;;;;12.38;7.45;;;12.70;62.90;;;;;;5078074;28;20031;-59
2022/04/30 00:25:52;;;;;;;11.27;6.97;;;12.70;62.60;;;;;;5078050;28;20021;-59
2022/04/30 00:28:20;;;;;;;11.95;7.38;;;12.60;62.90;;;;;;5077769;28;20048;-59
2022/04/30 00:30:47;;;;;;;13.85;7.38;;;12.70;63.60;;;;;;5077560;28;20107;-59
2022/04/30 00:33:13;;;;;;;12.73;7.28;;;12.60;62.90;;;;;;5077907;28;20078;-60
2022/04/30 00:35:41;;;;;;;12.23;7.15;;;12.60;62.60;;;;;;5077547;28;20250;-59
2022/04/30 00:38:07;;;;;;;13.57;6.90;;;12.50;62.80;;;;;;5077866;28;20047;-59
2022/04/30 00:40:33;;;;;;;10.35;6.70;;;12.50;63.10;;;;;;5077807;28;20035;-59
2022/04/30 00:42:59;;;;;;;10.73;6.72;;;12.50;63.10;;;;;;5077481;28;20030;-60
2022/04/30 00:45:25;;;;;;;11.75;7.03;;;12.50;61.60;;;;;;5077730;28;20485;-60
2022/04/30 00:47:50;;;;;;;12.98;7.13;;;12.50;62.70;;;;;;5077458;28;20024;-59
2022/04/30 00:50:17;;;;;;;11.18;6.57;;;12.50;62.90;;;;;;5077908;28;20376;-60
2022/04/30 00:52:48;;;;;;;11.32;6.60;;;12.40;62.70;;;;;;5077470;28;20020;-59
2022/04/30 00:55:19;;;;;;;10.23;6.60;;;12.30;62.60;;;;;;5077525;28;20036;-59
2022/04/30 00:57:45;;;;;;;9.90;6.20;;;12.30;63.00;;;;;;5077440;28;20033;-59
2022/04/30 01:00:12;;;;;;;12.43;6.43;;;12.20;62.80;;;;;;5077455;28;20025;-59
2022/04/30 01:02:38;;;;;;;10.07;6.90;;;12.20;63.60;;;;;;5077507;28;20032;-59
2022/04/30 01:05:04;;;;;;;11.48;6.60;;;12.10;63.50;;;;;;5077568;28;20032;-59
2022/04/30 01:07:31;;;;;;;9.88;6.25;;;12.10;63.00;;;;;;5077239;28;20082;-59
2022/04/30 01:09:57;;;;;;;9.63;6.05;;;12.10;63.40;;;;;;5077331;28;20017;-59
2022/04/30 01:12:25;;;;;;;11.35;6.35;;;12.00;62.20;;;;;;5077523;28;20523;-59
2022/04/30 01:14:52;;;;;;;10.73;6.30;;;12.00;62.50;;;;;;5077058;28;20056;-59
2022/04/30 01:17:18;;;;;;;11.45;6.95;;;12.00;63.50;;;;;;5077162;28;20071;-59
2022/04/30 01:19:47;;;;;;;10.15;5.68;;;12.00;63.00;;;;;;5077441;28;20484;-60
2022/04/30 01:22:50;;;;;;;8.95;5.97;;;12.00;62.80;;;;;;5077176;28;20476;-59
2022/04/30 01:25:17;;;;;;;10.43;5.90;;;11.90;63.10;;;;;;5077537;28;20063;-59
2022/04/30 01:27:43;;;;;;;10.57;6.00;;;11.90;62.50;;;;;;5077104;28;20058;-60
2022/04/30 01:30:10;;;;;;;11.25;6.35;;;11.90;62.70;;;;;;5077138;28;20051;-60
2022/04/30 01:38:20;;;;;;;9.75;5.40;;;11.80;63.00;;;;;;5077075;28;20039;-59
2022/04/30 01:40:49;;;;;;;10.27;5.88;;;11.70;62.90;;;;;;5077125;28;20035;-60
2022/04/30 01:43:16;;;;;;;10.18;6.15;;;11.70;63.30;;;;;;5076949;28;20037;-59
2022/04/30 01:45:44;;;;;;;9.93;6.20;;;11.70;63.50;;;;;;5077114;28;20032;-59
2022/04/30 01:48:14;;;;;;;10.85;6.85;;;11.70;62.90;;;;;;5076835;28;20054;-59
2022/04/30 01:50:43;;;;;;;14.63;6.22;;;11.60;62.70;;;;;;5076728;28;20020;-59
2022/04/30 01:53:09;;;;;;;13.00;6.68;;;11.60;63.60;;;;;;5077126;28;20096;-59
2022/04/30 01:55:37;;;;;;;12.40;6.63;;;11.50;63.60;;;;;;5080440;28;20045;-59
2022/04/30 01:58:03;;;;;;;11.38;6.18;;;11.50;62.80;;;;;;5080670;28;20067;-60
2022/04/30 02:00:30;;;;;;;10.85;6.82;;;11.50;63.40;;;;;;5080770;28;20107;-59
2022/04/30 02:03:01;;;;;;;12.55;6.20;;;11.40;63.30;;;;;;5080570;28;20029;-59
2022/04/30 02:05:27;;;;;;;12.10;6.88;;;11.40;63.50;;;;;;5080241;28;20508;-59
2022/04/30 02:07:58;;;;;;;11.35;7.07;;;11.40;63.50;;;;;;5080740;28;20062;-59
2022/04/30 02:10:24;;;;;;;11.55;6.78;;;11.40;63.50;;;;;;5080486;28;20047;-59
2022/04/30 02:12:53;;;;;;;14.40;7.32;;;11.30;63.90;;;;;;5080655;28;20043;-59
2022/04/30 02:15:20;;;;;;;11.48;6.82;;;11.30;63.30;;;;;;5080312;28;20112;-59
2022/04/30 02:17:47;;;;;;;10.90;5.95;;;11.20;62.40;;;;;;5080288;28;20066;-59
2022/04/30 02:20:28;;;;;;;12.45;6.75;;;11.20;63.50;;;;;;5080288;28;20028;-59
2022/04/30 02:23:01;;;;;;;10.77;6.57;;;11.20;64.20;;;;;;5079979;28;20528;-59
2022/04/30 02:25:28;;;;;;;11.05;6.43;;;11.10;64.40;;;;;;5080117;28;20024;-59
2022/04/30 02:28:04;;;;;;;11.98;6.65;;;11.00;64.50;;;;;;5080318;28;20361;-59
2022/04/30 02:30:32;;;;;;;13.18;6.82;;;11.00;63.10;;;;;;5080343;28;20017;-59
2022/04/30 02:33:08;;;;;;;12.63;6.68;;;11.00;64.50;;;;;;5080255;28;20017;-59
2022/04/30 02:35:36;;;;;;;11.75;6.53;;;11.00;65.00;;;;;;5080308;28;20031;-59
2022/04/30 02:38:08;;;;;;;11.73;7.05;;;11.00;63.50;;;;;;5080176;28;20021;-59
2022/04/30 02:40:35;;;;;;;13.40;7.18;;;10.90;64.40;;;;;;5079939;28;20596;-62
2022/04/30 02:43:06;;;;;;;11.30;6.90;;;10.90;65.40;;;;;;5080129;28;20389;-62
2022/04/30 02:45:31;;;;;;;13.95;6.85;;;10.90;64.20;;;;;;5079812;28;20027;-61
2022/04/30 02:47:57;;;;;;;13.23;6.82;;;10.80;64.80;;;;;;5079651;28;20472;-62
2022/04/30 02:50:24;;;;;;;13.35;6.88;;;10.80;64.70;;;;;;5079872;28;20021;-62
2022/04/30 02:52:55;;;;;;;10.15;7.30;;;10.80;65.80;;;;;;5079748;28;20020;-61
2022/04/30 02:55:22;;;;;;;10.98;6.95;;;10.80;64.90;;;;;;5079416;28;20037;-62
2022/04/30 03:00:43;;;;;;;13.93;7.00;;;10.80;64.30;;;;;;5079625;28;20054;-62
2022/04/30 03:03:10;;;;;;;11.27;6.90;;;10.70;65.20;;;;;;5079925;28;20025;-62
2022/04/30 03:05:39;;;;;;;12.02;6.85;;;10.70;64.70;;;;;;5078367;28;20035;-62
2022/04/30 03:08:12;;;;;;;10.70;7.20;;;10.70;65.70;;;;;;5079498;28;20037;-62
2022/04/30 03:10:43;;;;;;;13.00;7.70;;;10.60;64.40;;;;;;5079545;28;20016;-62
2022/04/30 03:13:09;;;;;;;12.77;7.03;;;10.60;64.90;;;;;;5079519;28;20024;-62
2022/04/30 03:15:38;;;;;;;11.80;6.43;;;10.50;64.60;;;;;;5079233;28;20046;-62
2022/04/30 03:23:38;;;;;;;13.25;7.32;;;10.50;64.80;;;;;;5079345;28;20039;-61
2022/04/30 03:26:08;;;;;;;13.63;7.32;;;10.50;64.10;;;;;;5078934;28;20029;-62
2022/04/30 03:28:36;;;;;;;14.27;7.63;;;10.50;64.50;;;;;;5078777;28;20028;-61
2022/04/30 03:31:03;;;;;;;13.38;6.80;;;10.50;64.60;;;;;;5078898;28;20021;-62
2022/04/30 03:33:29;;;;;;;11.13;6.80;;;10.50;64.40;;;;;;5078890;28;20032;-62
2022/04/30 03:35:55;;;;;;;13.45;7.72;;;10.40;65.90;;;;;;5078771;28;20019;-62
2022/04/30 03:38:21;;;;;;;12.77;7.68;;;10.40;65.20;;;;;;5078561;28;20088;-62
2022/04/30 03:40:47;;;;;;;13.80;7.22;;;10.40;64.40;;;;;;5078729;28;20027;-62
2022/04/30 03:43:15;;;;;;;11.32;6.47;;;10.40;64.30;;;;;;5078889;28;20016;-61
2022/04/30 03:45:42;;;;;;;11.95;6.88;;;10.30;64.30;;;;;;5078799;28;20048;-61
2022/04/30 03:48:09;;;;;;;13.50;7.43;;;10.30;64.50;;;;;;5078707;28;20036;-62
2022/04/30 03:50:35;;;;;;;12.48;7.38;;;10.30;64.50;;;;;;5078654;28;20027;-62
2022/04/30 03:53:01;;;;;;;11.48;7.10;;;10.30;65.30;;;;;;5078552;28;20035;-62
2022/04/30 03:55:27;;;;;;;11.05;6.75;;;10.30;66.20;;;;;;5078298;28;20064;-62
2022/04/30 03:57:56;;;;;;;18.38;7.30;;;10.30;65.60;;;;;;5078381;28;20024;-62
2022/04/30 04:00:23;;;;;;;12.32;7.03;;;10.20;65.00;;;;;;5078138;28;20031;-62
2022/04/30 04:02:49;;;;;;;11.85;8.20;;;10.30;64.80;;;;;;5078465;28;20039;-61
2022/04/30 04:05:17;;;;;;;14.98;6.75;;;10.30;65.70;;;;;;5078164;28;20032;-61
2022/04/30 04:07:43;;;;;;;14.38;7.30;;;10.20;64.50;;;;;;5078301;28;20028;-61
2022/04/30 04:10:10;;;;;;;14.55;7.25;;;10.20;66.30;;;;;;5077997;28;20044;-61
2022/04/30 04:12:37;;;;;;;10.90;5.82;;;10.20;64.60;;;;;;5078098;28;20025;-61
2022/04/30 04:17:52;;;;;;;12.52;7.18;;;10.10;65.50;;;;;;5077689;28;20151;-61
2022/04/30 04:20:18;;;;;;;11.45;6.85;;;10.20;65.10;;;;;;5077897;28;20024;-62
2022/04/30 04:22:45;;;;;;;12.18;6.85;;;10.10;65.40;;;;;;5078197;28;20029;-61
2022/04/30 04:27:58;;;;;;;11.88;6.70;;;10.10;65.90;;;;;;5078070;28;20491;-61
2022/04/30 04:30:26;;;;;;;14.15;6.57;;;10.10;65.70;;;;;;5077764;28;20013;-62
2022/04/30 04:32:53;;;;;;;12.55;7.28;;;10.10;65.30;;;;;;5078244;28;20028;-61
2022/04/30 04:35:19;;;;;;;11.65;7.03;;;10.00;66.80;;;;;;5077793;28;20044;-62
2022/04/30 04:37:45;;;;;;;12.18;6.90;;;10.00;65.70;;;;;;5077740;28;20028;-61
2022/04/30 04:40:12;;;;;;;11.43;7.22;;;10.00;65.30;;;;;;5077675;28;20020;-62
2022/04/30 04:42:40;;;;;;;10.35;6.65;;;10.00;66.20;;;;;;5078070;28;20060;-62
2022/04/30 04:45:07;;;;;;;12.00;7.05;;;10.00;66.40;;;;;;5077807;28;20104;-62
2022/04/30 04:47:35;;;;;;;10.60;6.53;;;9.90;65.30;;;;;;5077428;28;20427;-61
2022/04/30 04:50:04;;;;;;;11.13;6.45;;;9.90;66.50;;;;;;5077379;28;20514;-61
2022/04/30 04:52:30;;;;;;;10.80;6.10;;;9.90;66.90;;;;;;5077696;28;20016;-61
2022/04/30 04:54:58;;;;;;;11.38;6.47;;;9.90;66.20;;;;;;5077538;28;20393;-62
2022/04/30 04:57:24;;;;;;;13.40;6.60;;;9.90;66.50;;;;;;5077448;28;20025;-61
2022/04/30 04:59:51;;;;;;;10.20;6.55;;;9.90;65.20;;;;;;5077464;28;20032;-61
2022/04/30 05:02:18;;;;;;;11.43;6.10;;;9.90;65.10;;;;;;5077301;28;20495;-61
2022/04/30 05:04:43;;;;;;;12.63;6.93;;;9.80;66.30;;;;;;5077732;28;20055;-62
2022/04/30 05:07:09;;;;;;;11.95;6.97;;;9.80;66.20;;;;;;5077282;28;20025;-62
2022/04/30 05:09:35;;;;;;;11.88;6.90;;;9.80;65.40;;;;;;5077552;28;20016;-62
2022/04/30 05:12:01;;;;;;;11.32;6.60;;;9.80;65.80;;;;;;5077697;28;20024;-61
2022/04/30 05:14:34;;;;;;;16.83;6.85;;;9.80;65.10;;;;;;5077530;28;20031;-62
2022/04/30 05:17:02;;;;;;;11.27;5.88;;;9.80;66.10;;;;;;5077763;28;20025;-62
2022/04/30 05:19:28;;;;;;;14.23;7.78;;;9.80;66.00;;;;;;5077271;28;20028;-61
2022/04/30 05:21:54;;;;;;;12.00;6.50;;;9.80;65.20;;;;;;5077459;28;20496;-62
2022/04/30 05:24:20;;;;;;;11.50;6.30;;;9.80;65.80;;;;;;5077166;28;20021;-61
2022/04/30 05:26:49;;;;;;;12.02;6.97;;;9.80;66.40;;;;;;5077258;28;20549;-61
2022/04/30 05:29:15;;;;;;;12.98;6.43;;;9.80;66.30;;;;;;5078912;28;20455;-61
2022/04/30 05:31:42;;;;;;;12.18;6.47;;;9.90;65.80;;;;;;5081087;28;20024;-61
2022/04/30 05:34:08;;;;;;;12.05;7.00;;;9.80;66.50;;;;;;5081054;28;20353;-61
2022/04/30 05:36:34;;;;;;;12.32;6.25;;;9.80;65.00;;;;;;5081081;28;20033;-61
2022/04/30 05:38:59;;;;;;;14.70;7.40;;;9.90;65.80;;;;;;5081273;28;20078;-61
2022/04/30 05:41:26;;;;;;;11.60;6.82;;;9.90;65.10;;;;;;5081014;28;20499;-61
2022/04/30 05:43:52;;;;;;;12.40;6.75;;;9.90;65.50;;;;;;5080981;28;20571;-62
2022/04/30 05:46:18;;;;;;;10.25;5.95;;;9.90;66.30;;;;;;5080696;28;20024;-61
2022/04/30 05:48:44;;;;;;;12.35;6.70;;;9.90;65.90;;;;;;5080837;28;20017;-62
2022/04/30 05:51:10;;;;;;;10.52;6.22;;;9.90;65.80;;;;;;5080970;28;20029;-61
2022/04/30 05:53:36;;;;;;;14.45;7.70;;;9.90;66.70;;;;;;5080881;28;20099;-61
2022/04/30 05:56:02;;;;;;;13.32;7.40;;;10.00;66.50;;;;;;5080480;28;20083;-62
2022/04/30 05:58:28;;;;;;;12.50;6.65;;;10.00;66.40;;;;;;5079322;28;20036;-62
2022/04/30 06:00:53;;;;;;;12.07;7.13;;;10.10;65.30;;;;;;5080996;28;20068;-61
2022/04/30 06:03:19;;;;;;;13.80;6.57;;;10.10;65.70;;;;;;5080400;28;20020;-61
2022/04/30 06:05:45;;;;;;;12.32;7.45;;;10.10;67.20;;;;;;5080580;28;20405;-61
2022/04/30 06:08:11;;;;;;;11.48;6.53;;;10.10;66.10;;;;;;5080239;28;20057;-61
2022/04/30 06:10:37;;;;;;;13.60;7.60;;;10.20;66.50;;;;;;5079601;28;20025;-61
2022/04/30 06:13:03;;;;;;;14.70;7.38;;;10.20;66.70;;;;;;5080228;28;20020;-62
2022/04/30 06:15:29;;;;;;;12.00;7.47;;;10.30;66.80;;;;;;5080379;28;20017;-62
2022/04/30 06:17:55;;;;;;;13.00;7.63;;;10.30;66.40;;;;;;5080089;28;20562;-62
2022/04/30 06:20:21;;;;;;;15.20;7.30;;;10.30;66.50;;;;;;5080291;28;20082;-61
2022/04/30 06:22:48;;;;;;;12.50;6.93;;;10.40;66.30;;;;;;5080271;28;20024;-62
2022/04/30 06:25:14;;;;;;;12.32;7.95;;;10.40;66.90;;;;;;5080143;28;20020;-61
2022/04/30 06:27:40;;;;;;;12.38;7.32;;;10.40;66.30;;;;;;5080401;28;20056;-61
2022/04/30 06:30:07;;;;;;;12.10;7.13;;;10.50;66.90;;;;;;5079979;28;20020;-61
2022/04/30 06:32:34;;;;;;;15.77;7.78;;;10.50;66.40;;;;;;5080203;28;20020;-62
2022/04/30 06:35:01;;;;;;;11.55;7.05;;;10.60;66.20;;;;;;5078870;28;20449;-61
2022/04/30 06:37:26;;;;;;;11.35;6.80;;;10.60;65.80;;;;;;5079902;28;20033;-61
2022/04/30 06:39:52;;;;;;;15.50;7.55;;;10.70;65.80;;;;;;5079671;28;20058;-62
2022/04/30 06:42:18;;;;;;;12.18;6.80;;;10.60;65.50;;;;;;5079907;28;20074;-61
2022/04/30 06:44:44;;;;;;;13.25;6.75;;;10.70;66.00;;;;;;5079786;28;20029;-62
2022/04/30 06:47:10;;;;;;;14.70;7.47;;;10.60;66.00;;;;;;5078825;28;20103;-62
2022/04/30 06:49:36;;;;;;;11.70;7.00;;;10.70;66.40;;;;;;5080047;28;20024;-61
2022/04/30 06:52:02;;;;;;;10.57;7.28;;;10.80;65.70;;;;;;5079960;28;20021;-62
2022/04/30 06:57:16;;;;;;;14.27;7.55;;;10.80;65.70;;;;;;5079619;28;20087;-61
2022/04/30 06:59:44;;;;;;;12.27;7.22;;;10.80;66.00;;;;;;5079804;28;20371;-61
2022/04/30 07:02:23;;;;;;;11.02;6.78;;;10.90;65.70;;;;;;5079332;28;20461;-61
2022/04/30 07:04:51;;;;;;;10.85;6.55;;;10.90;65.70;;;;;;5079442;28;20108;-61
2022/04/30 07:07:21;;;;;;;14.95;7.72;;;11.00;66.00;;;;;;5079403;28;20025;-62
2022/04/30 07:09:47;;;;;;;13.90;6.85;;;11.10;65.40;;;;;;5079711;28;20028;-61
2022/04/30 07:12:14;;;;;;;14.65;7.53;;;11.10;65.70;;;;;;5079406;28;20023;-62
2022/04/30 07:14:42;;;;;;;13.82;7.63;;;11.20;65.90;;;;;;5079085;28;20420;-61
2022/04/30 07:17:11;;;;;;;13.30;6.95;;;11.20;65.60;;;;;;5079277;28;20043;-61
2022/04/30 07:19:37;;;;;;;12.85;6.90;;;11.30;65.00;;;;;;5079065;28;20023;-62
2022/04/30 07:22:04;;;;;;;16.40;7.10;;;11.40;65.70;;;;;;5079014;28;20021;-61
2022/04/30 07:24:31;;;;;;;15.35;7.47;;;11.50;65.40;;;;;;5079375;28;20037;-62
2022/04/30 07:26:57;;;;;;;12.27;6.80;;;11.50;64.60;;;;;;5079039;28;20020;-62
2022/04/30 07:29:23;;;;;;;13.43;6.82;;;11.50;64.70;;;;;;5078923;28;21078;-62
2022/04/30 07:31:49;;;;;;;10.43;6.63;;;11.60;65.10;;;;;;5079000;28;20036;-62
2022/04/30 07:34:15;;;;;;;12.77;6.22;;;11.70;64.70;;;;;;5078486;28;20476;-62
2022/04/30 07:36:41;;;;;;;12.65;6.63;;;11.70;64.30;;;;;;5078886;28;20094;-62
2022/04/30 07:39:07;;;;;;;11.80;6.95;;;11.70;64.40;;;;;;5078934;28;20029;-61
2022/04/30 07:41:33;;;;;;;11.35;6.60;;;11.80;64.00;;;;;;5078630;28;20027;-61
2022/04/30 07:43:59;;;;;;;11.80;5.95;;;11.80;64.00;;;;;;5078796;28;20047;-62
2022/04/30 07:46:25;;;;;;;10.10;6.07;;;11.90;63.80;;;;;;5077642;28;20395;-62
2022/04/30 07:48:51;;;;;;;12.90;5.82;;;11.90;63.60;;;;;;5076840;28;20024;-62
2022/04/30 07:51:23;;;;;;;10.68;5.88;;;12.00;63.90;;;;;;5076734;28;20021;-62
2022/04/30 07:53:49;;;;;;;12.20;6.50;;;12.10;64.40;;;;;;5076444;28;20064;-62
2022/04/30 07:56:16;;;;;;;12.63;6.47;;;12.20;63.10;;;;;;5077670;28;20045;-62
2022/04/30 07:58:42;;;;;;;9.70;5.68;;;12.30;63.20;;;;;;5077779;28;20053;-62
2022/04/30 08:01:08;;;;;;;12.52;6.38;;;12.30;63.20;;;;;;5076669;28;20017;-62
2022/04/30 08:03:34;;;;;;;10.35;6.30;;;12.30;62.30;;;;;;5077167;28;20169;-62
2022/04/30 08:06:01;;;;;;;13.05;6.10;;;12.30;62.40;;;;;;5076105;28;20024;-62
2022/04/30 08:08:27;;;;;;;9.57;6.22;;;12.30;62.00;;;;;;5075886;28;20143;-62
2022/04/30 08:10:53;;;;;;;10.18;6.35;;;12.30;62.20;;;;;;5076071;28;20027;-62
2022/04/30 08:13:19;;;;;;;12.73;6.45;;;12.40;62.10;;;;;;5076635;28;20020;-62
2022/04/30 08:15:45;;;;;;;11.15;6.40;;;12.40;62.20;;;;;;5077315;28;20025;-62
2022/04/30 08:18:11;;;;;;;9.93;5.97;;;12.40;62.40;;;;;;5077278;28;20024;-62
2022/04/30 08:20:38;;;;;;;10.30;5.30;;;12.50;62.40;;;;;;5078069;28;20046;-62
2022/04/30 08:23:07;;;;;;;10.65;5.53;;;12.60;62.30;;;;;;5077808;28;20024;-62
2022/04/30 08:25:35;;;;;;;10.60;6.20;;;12.70;61.80;;;;;;5076441;28;20017;-62
2022/04/30 08:28:01;;;;;;;10.80;6.05;;;12.80;61.30;;;;;;5077535;28;20498;-62
2022/04/30 08:30:27;;;;;;;10.18;6.00;;;12.80;60.90;;;;;;5078175;28;20037;-62
2022/04/30 08:32:54;;;;;;;8.98;5.55;;;12.90;61.00;;;;;;5077936;28;20021;-62
2022/04/30 08:35:19;;;;;;;12.32;5.80;;;12.90;61.30;;;;;;5077819;28;20021;-62
2022/04/30 08:37:45;;;;;;;10.68;5.72;;;13.00;60.80;;;;;;5077595;28;20080;-62
2022/04/30 08:40:12;;;;;;;11.30;5.68;;;13.10;60.80;;;;;;5077891;28;20017;-62
2022/04/30 08:42:38;;;;;;;9.82;5.88;;;13.20;61.30;;;;;;5077990;28;20029;-62
2022/04/30 08:45:08;;;;;;;9.98;6.03;;;13.30;61.00;;;;;;5077632;28;20048;-63
2022/04/30 08:47:45;;;;;;;11.57;5.43;;;13.50;60.90;;;;;;5077816;28;20032;-62
2022/04/30 08:50:14;;;;;;;9.40;5.47;;;13.60;60.60;;;;;;5077631;28;20013;-61
2022/04/30 08:52:41;;;;;;;10.63;5.97;;;13.70;60.00;;;;;;5077258;28;20458;-62
2022/04/30 08:55:08;;;;;;;9.82;6.03;;;13.70;60.10;;;;;;5077266;28;20047;-62
2022/04/30 08:57:34;;;;;;;9.20;5.35;;;13.80;60.10;;;;;;5077583;28;20443;-62
2022/04/30 09:00:01;;;;;;;10.90;5.93;;;13.90;60.30;;;;;;5077855;28;20050;-62
2022/04/30 09:02:28;;;;;;;9.25;5.70;;;14.00;60.30;;;;;;5077517;28;20104;-62
2022/04/30 09:04:54;;;;;;;12.20;6.05;;;14.10;59.60;;;;;;5077555;28;20053;-62
2022/04/30 09:07:25;;;;;;;10.57;6.13;;;14.20;59.20;;;;;;5077389;28;20870;-62
2022/04/30 09:09:58;;;;;;;8.35;5.40;;;14.40;60.10;;;;;;5077106;28;20028;-62
2022/04/30 09:12:26;;;;;;;13.30;6.43;;;14.50;59.90;;;;;;5077454;28;20032;-62
2022/04/30 09:14:52;;;;;;;9.65;5.43;;;14.70;59.10;;;;;;5077045;28;20750;-62
2022/04/30 09:17:18;;;;;;;10.90;5.60;;;14.80;58.20;;;;;;5077243;28;20035;-62
2022/04/30 09:19:54;;;;;;;10.93;5.85;;;14.90;59.10;;;;;;5077272;28;20464;-62
2022/04/30 09:22:33;;;;;;;9.50;5.80;;;15.10;58.60;;;;;;5077516;28;20498;-63
2022/04/30 09:25:09;;;;;;;9.43;5.82;;;15.30;57.10;;;;;;5077133;28;20024;-62
2022/04/30 09:27:45;;;;;;;10.10;6.15;;;15.40;57.50;;;;;;5077166;28;20115;-62
2022/04/30 09:30:18;;;;;;;11.25;6.10;;;15.60;56.50;;;;;;5076866;28;20025;-62
2022/04/30 09:32:45;;;;;;;10.65;6.20;;;15.70;55.90;;;;;;5077249;28;20069;-63
2022/04/30 09:38:04;;;;;;;9.35;6.35;;;16.00;54.40;;;;;;5076855;28;20032;-63
2022/04/30 09:40:31;;;;;;;9.15;6.10;;;16.10;54.80;;;;;;5076548;28;20036;-62
2022/04/30 09:42:57;;;;;;;8.90;5.72;;;16.30;53.70;;;;;;5076707;28;20158;-63
2022/04/30 09:45:34;;;;;;;11.18;6.43;;;16.60;55.70;;;;;;5076452;28;20028;-63
2022/04/30 09:53:55;;;;;;;10.65;7.13;;;16.90;55.20;;;;;;5076319;28;20482;-63
2022/04/30 09:56:49;;;;;;;11.80;7.15;;;17.40;53.10;;;;;;5076570;28;20565;-61
2022/04/30 09:59:16;;;;;;;10.68;6.47;;;17.70;50.30;;;;;;5074756;28;20527;-60
2022/04/30 10:01:44;;;;;;;10.02;6.10;;;17.80;51.90;;;;;;5076693;28;20055;-60
2022/04/30 10:04:17;;;;;;;10.60;6.32;;;18.10;51.70;;;;;;5076825;28;20024;-61
2022/04/30 10:06:50;;;;;;;10.63;6.43;;;18.30;49.50;;;;;;5076567;28;20028;-61
2022/04/30 10:09:26;;;;;;;11.70;6.05;;;18.60;51.80;;;;;;5076899;28;20025;-61
2022/04/30 10:12:06;;;;;;;9.32;5.72;;;18.80;50.10;;;;;;5077121;28;20349;-60
2022/04/30 10:14:41;;;;;;;9.23;6.25;;;19.00;48.60;;;;;;5076749;28;20473;-60
2022/04/30 10:17:13;;;;;;;10.65;6.30;;;19.20;47.90;;;;;;5079786;28;20029;-61
2022/04/30 10:19:40;;;;;;;9.90;6.30;;;19.30;48.30;;;;;;5080084;28;20052;-60
2022/04/30 10:22:16;;;;;;;9.95;5.75;;;19.30;48.10;;;;;;5080302;28;20029;-61
2022/04/30 10:24:48;;;;;;;9.88;6.50;;;19.40;49.20;;;;;;5079913;28;20028;-61
2022/04/30 10:27:15;;;;;;;9.55;6.03;;;19.70;47.10;;;;;;5080444;28;20033;-60
2022/04/30 10:29:59;;;;;;;11.82;5.80;;;19.80;44.20;;;;;;5080128;28;20024;-61
2022/04/30 10:32:32;;;;;;;8.40;5.17;;;19.80;45.40;;;;;;5080176;28;20059;-61
2022/04/30 10:34:59;;;;;;;7.75;5.57;;;20.00;48.10;;;;;;5080423;28;20025;-61
2022/04/30 10:37:29;;;;;;;9.52;5.25;;;20.40;46.20;;;;;;5080242;28;20024;-61
2022/04/30 10:39:57;;;;;;;10.48;5.75;;;20.90;47.00;;;;;;5080021;28;20089;-61
2022/04/30 10:42:42;;;;;;;8.57;5.10;;;21.30;48.90;;;;;;5079888;28;20026;-61
2022/04/30 10:45:12;;;;;;;8.55;5.57;;;21.70;45.30;;;;;;5080098;28;20032;-61
2022/04/30 10:47:55;;;;;;;8.10;5.30;;;22.00;43.30;;;;;;5079645;28;20031;-62
2022/04/30 10:50:22;;;;;;;9.57;5.57;;;22.00;46.60;;;;;;5079789;28;20154;-62
2022/04/30 10:52:49;;;;;;;8.13;4.88;;;22.00;44.60;;;;;;5079567;28;20051;-61
2022/04/30 10:55:17;;;;;;;9.52;5.20;;;22.00;44.90;;;;;;5079519;28;20097;-61
2022/04/30 10:57:44;;;;;;;9.32;5.40;;;22.10;42.40;;;;;;5079687;28;20105;-62
2022/04/30 11:00:11;;;;;;;9.68;5.50;;;22.40;44.50;;;;;;5079442;28;20513;-62
2022/04/30 11:02:36;;;;;;;8.07;5.30;;;22.70;44.60;;;;;;5079272;28;20025;-62
2022/04/30 11:05:03;;;;;;;8.15;5.20;;;23.00;45.10;;;;;;5079582;28;20416;-62
2022/04/30 11:07:31;;;;;;;10.15;5.60;;;23.40;42.30;;;;;;5079436;28;20025;-62
2022/04/30 11:09:57;;;;;;;9.73;5.55;;;23.80;41.60;;;;;;5079251;28;20048;-62
2022/04/30 11:12:31;;;;;;;9.35;5.22;;;23.80;37.00;;;;;;5079226;28;20020;-62
2022/04/30 11:14:58;;;;;;;9.32;5.43;;;23.90;40.20;;;;;;5079493;28;20097;-62
2022/04/30 11:17:25;;;;;;;9.27;5.22;;;24.00;39.70;;;;;;5079029;28;20035;-62
2022/04/30 11:19:51;;;;;;;8.18;5.70;;;24.10;39.70;;;;;;5079096;28;20028;-62
2022/04/30 11:22:17;;;;;;;9.50;5.53;;;24.20;39.50;;;;;;5079187;28;20028;-62
2022/04/30 11:24:44;;;;;;;12.27;6.30;;;24.20;37.20;;;;;;5079047;28;20032;-62
2022/04/30 11:27:10;;;;;;;6.90;5.05;;;24.20;39.10;;;;;;5078010;28;20028;-62
2022/04/30 11:29:38;;;;;;;8.20;5.28;;;24.30;36.40;;;;;;5078837;28;20029;-63
2022/04/30 11:32:07;;;;;;;8.05;5.57;;;24.70;39.90;;;;;;5079168;28;20082;-62
2022/04/30 11:34:33;;;;;;;7.95;4.85;;;25.00;39.70;;;;;;5079232;28;20025;-63
2022/04/30 11:37:01;;;;;;;8.98;5.25;;;25.50;40.00;;;;;;5078672;28;20511;-63
2022/04/30 11:39:28;;;;;;;9.18;5.32;;;25.70;35.50;;;;;;5078838;28;20036;-63
2022/04/30 11:41:55;;;;;;;9.30;5.30;;;25.80;36.20;;;;;;5078653;28;20032;-63
2022/04/30 11:44:23;;;;;;;8.07;5.10;;;26.00;35.90;;;;;;5078649;28;20068;-63
2022/04/30 11:46:51;;;;;;;9.32;5.65;;;26.20;36.60;;;;;;5078830;28;20021;-62
2022/04/30 11:49:23;;;;;;;8.80;5.38;;;26.10;35.20;;;;;;5078887;28;20028;-62
2022/04/30 11:51:50;;;;;;;7.93;5.18;;;25.90;35.00;;;;;;5078372;28;20013;-63
2022/04/30 11:54:20;;;;;;;8.10;4.80;;;25.90;34.60;;;;;;5078201;28;20468;-63
2022/04/30 11:56:46;;;;;;;6.47;4.50;;;25.80;33.20;;;;;;5077902;28;20057;-63
2022/04/30 11:59:12;;;;;;;7.72;5.00;;;26.00;34.60;;;;;;5078165;28;20043;-62
2022/04/30 12:01:40;;;;;;;8.13;4.75;;;26.00;35.10;;;;;;5078440;28;20017;-63
2022/04/30 12:04:11;;;;;;;8.48;5.28;;;25.90;33.90;;;;;;5078203;28;20031;-62
2022/04/30 12:06:38;;;;;;;8.30;5.03;;;25.70;30.90;;;;;;5078054;28;20031;-62
2022/04/30 12:09:20;;;;;;;9.48;5.25;;;25.70;35.10;;;;;;5078068;28;20380;-62
2022/04/30 12:11:51;;;;;;;8.85;5.20;;;25.70;32.70;;;;;;5077954;28;20024;-62
2022/04/30 12:14:17;;;;;;;8.05;5.00;;;25.80;36.20;;;;;;5076758;28;20024;-62
2022/04/30 12:16:45;;;;;;;8.13;4.82;;;25.90;35.80;;;;;;5078154;28;20027;-62
2022/04/30 12:25:07;;;;;;;10.73;5.57;;;26.20;34.70;;;;;;5077942;28;20043;-63
2022/04/30 12:27:33;;;;;;;7.57;5.07;;;26.20;34.40;;;;;;5077905;28;20044;-63
2022/04/30 12:30:06;;;;;;;8.63;5.60;;;26.00;34.70;;;;;;5077529;28;20028;-62
2022/04/30 12:32:33;;;;;;;9.55;5.30;;;26.00;33.80;;;;;;5077464;28;20048;-62
2022/04/30 12:34:59;;;;;;;9.55;5.25;;;25.90;33.80;;;;;;5076645;28;20035;-62
2022/04/30 12:37:34;;;;;;;9.45;5.70;;;25.70;33.10;;;;;;5077360;28;20024;-62
2022/04/30 12:40:01;;;;;;;8.95;5.63;;;25.60;34.30;;;;;;5077401;28;20024;-62
2022/04/30 12:42:28;;;;;;;8.00;4.97;;;25.60;32.20;;;;;;5077529;28;20115;-62
2022/04/30 12:44:53;;;;;;;8.52;5.50;;;25.30;32.40;;;;;;5077344;28;20035;-62
2022/04/30 12:47:20;;;;;;;7.65;4.97;;;25.10;33.20;;;;;;5077594;28;20025;-62
2022/04/30 12:49:46;;;;;;;7.38;4.75;;;25.00;33.40;;;;;;5077255;28;20024;-62
2022/04/30 12:52:11;;;;;;;10.45;5.13;;;25.00;32.40;;;;;;5077235;28;20020;-62
2022/04/30 12:54:37;;;;;;;7.00;4.47;;;25.30;34.90;;;;;;5077122;28;20056;-62
2022/04/30 12:57:07;;;;;;;9.93;5.72;;;25.50;34.10;;;;;;5077320;28;20036;-62
2022/04/30 12:59:37;;;;;;;7.78;5.28;;;25.30;33.90;;;;;;5075317;28;20103;-62
2022/04/30 13:02:04;;;;;;;7.63;5.03;;;25.10;33.70;;;;;;5075364;28;20024;-62
2022/04/30 13:04:30;;;;;;;7.78;4.97;;;24.90;33.00;;;;;;5075508;28;20082;-62
2022/04/30 13:06:56;;;;;;;9.63;5.22;;;24.90;34.40;;;;;;5076216;28;20024;-63
2022/04/30 13:14:51;;;;;;;7.82;5.43;;;25.50;33.80;;;;;;5077411;28;20028;-62
2022/04/30 13:17:17;;;;;;;8.20;5.03;;;25.70;33.20;;;;;;5077460;28;20028;-62
2022/04/30 13:19:44;;;;;;;7.35;4.55;;;25.80;32.90;;;;;;5077168;28;20031;-62
2022/04/30 13:22:10;;;;;;;6.97;4.43;;;26.00;34.80;;;;;;5077200;28;20537;-62
2022/04/30 13:24:36;;;;;;;8.57;6.10;;;26.00;33.80;;;;;;5077001;28;20036;-62
2022/04/30 13:27:02;;;;;;;7.78;5.55;;;25.90;32.60;;;;;;5077332;28;20025;-62